Time;durP1;ratioP1;P1;durP2;ratioP2;P2;SDS_P1;SDS_P2;PMS_P1;PMS_P2;Temp;Humidity;BMP_temperature;BMP_pressure;BME280_temperature;BME280_humidity;BME280_pressure;Samples;Min_cycle;Max_cycle;Signal;HPM_P1;HPM_P2
2021/04/24 00:02:20;;;;;;;2.33;1.80;;;14.80;91.90;;;;;;4978126;28;20484;-70
2021/04/24 00:04:45;;;;;;;1.58;1.48;;;14.60;91.80;;;;;;4980301;28;20026;-69
2021/04/24 00:07:11;;;;;;;2.20;2.00;;;14.70;92.50;;;;;;4980725;28;20065;-69
2021/04/24 00:09:37;;;;;;;2.33;1.85;;;14.60;91.90;;;;;;4979135;28;20054;-70
2021/04/24 00:12:04;;;;;;;3.30;2.05;;;14.80;91.70;;;;;;4972182;28;20070;-70
2021/04/24 00:14:30;;;;;;;2.50;1.90;;;14.60;91.70;;;;;;4970056;28;20022;-69
2021/04/24 00:16:56;;;;;;;4.07;1.85;;;14.80;91.70;;;;;;4975829;28;20030;-70
2021/04/24 00:19:21;;;;;;;1.88;1.77;;;14.60;92.00;;;;;;4971264;28;20540;-69
2021/04/24 00:21:47;;;;;;;1.70;1.60;;;14.60;91.90;;;;;;4975208;28;20197;-70
2021/04/24 00:24:13;;;;;;;3.72;1.85;;;14.50;91.90;;;;;;4983419;28;20031;-70
2021/04/24 00:26:38;;;;;;;3.67;2.17;;;14.60;91.90;;;;;;4976952;28;20022;-69
2021/04/24 00:29:05;;;;;;;3.05;2.10;;;14.70;92.00;;;;;;4973978;28;20475;-69
2021/04/24 00:31:30;;;;;;;2.40;2.00;;;14.60;91.80;;;;;;4976360;28;20334;-69
2021/04/24 00:33:56;;;;;;;1.80;1.70;;;14.50;91.80;;;;;;4974890;28;20033;-70
2021/04/24 00:36:22;;;;;;;2.83;1.65;;;14.50;91.80;;;;;;4975175;28;20026;-69
2021/04/24 00:38:48;;;;;;;1.70;1.60;;;14.60;91.70;;;;;;4974864;28;20057;-71
2021/04/24 00:41:14;;;;;;;2.10;1.90;;;14.50;91.80;;;;;;4972381;28;20503;-69
2021/04/24 00:43:39;;;;;;;1.98;1.88;;;14.50;91.70;;;;;;4973479;28;20495;-70
2021/04/24 00:46:13;;;;;;;3.13;1.90;;;14.50;91.70;;;;;;4975471;28;20050;-69
2021/04/24 00:48:39;;;;;;;1.98;1.77;;;14.60;91.60;;;;;;4970782;28;20026;-68
2021/04/24 00:51:06;;;;;;;2.40;2.20;;;14.60;91.50;;;;;;4971607;28;20030;-70
2021/04/24 00:53:33;;;;;;;4.82;1.98;;;14.60;91.50;;;;;;4976978;28;20062;-70
2021/04/24 00:55:58;;;;;;;1.70;1.60;;;14.70;91.50;;;;;;4972351;28;20031;-70
2021/04/24 00:58:26;;;;;;;2.25;2.05;;;14.50;91.50;;;;;;4972825;28;20369;-71
2021/04/24 01:00:52;;;;;;;2.30;2.10;;;14.50;91.50;;;;;;4973276;28;20026;-69
2021/04/24 01:03:17;;;;;;;2.70;1.98;;;14.50;91.60;;;;;;4979158;28;20037;-69
2021/04/24 01:05:44;;;;;;;2.17;1.98;;;14.50;91.60;;;;;;4972515;28;20034;-70
2021/04/24 01:08:10;;;;;;;1.73;1.60;;;14.60;91.50;;;;;;4979378;28;20499;-70
2021/04/24 01:10:38;;;;;;;1.75;1.65;;;14.60;91.60;;;;;;4972110;28;20023;-69
2021/04/24 01:13:06;;;;;;;1.88;1.75;;;14.40;91.50;;;;;;4981345;28;20031;-71
2021/04/24 01:15:31;;;;;;;1.63;1.52;;;14.20;91.50;;;;;;4971304;28;20030;-71
2021/04/24 01:17:57;;;;;;;1.90;1.65;;;14.50;91.70;;;;;;4973585;28;20066;-70
2021/04/24 01:20:24;;;;;;;2.00;1.77;;;14.50;91.50;;;;;;4969806;28;20432;-70
2021/04/24 01:22:50;;;;;;;3.08;1.92;;;14.50;91.70;;;;;;4969581;28;20050;-70
2021/04/24 01:25:23;;;;;;;2.90;1.73;;;14.40;91.80;;;;;;4966920;28;20026;-71
2021/04/24 01:27:57;;;;;;;2.00;1.88;;;14.30;91.90;;;;;;4971610;28;20027;-70
2021/04/24 01:30:32;;;;;;;2.00;1.80;;;14.10;91.70;;;;;;4970888;28;20519;-69
2021/04/24 01:32:58;;;;;;;2.78;1.77;;;14.20;92.10;;;;;;4971872;28;20034;-70
2021/04/24 01:35:29;;;;;;;6.07;1.63;;;14.20;91.30;;;;;;4971668;28;20093;-70
2021/04/24 01:37:55;;;;;;;8.30;1.88;;;14.30;91.10;;;;;;4984658;28;20105;-71
2021/04/24 01:40:22;;;;;;;1.92;1.83;;;14.20;91.40;;;;;;4980511;28;20031;-71
2021/04/24 01:42:48;;;;;;;4.40;1.80;;;14.10;91.30;;;;;;4978750;28;20085;-69
2021/04/24 01:45:16;;;;;;;2.10;1.75;;;14.10;91.30;;;;;;4974780;28;20122;-70
2021/04/24 01:47:43;;;;;;;2.20;2.00;;;14.00;91.30;;;;;;4982592;28;20387;-71
2021/04/24 01:50:15;;;;;;;2.78;2.00;;;14.00;91.40;;;;;;4978008;28;20607;-70
2021/04/24 01:52:42;;;;;;;4.45;2.13;;;14.00;91.60;;;;;;4975313;28;20514;-71
2021/04/24 01:55:15;;;;;;;1.98;1.65;;;14.10;91.60;;;;;;4974137;28;20029;-70
2021/04/24 01:57:42;;;;;;;2.17;1.60;;;14.00;92.20;;;;;;4985810;28;20027;-71
2021/04/24 02:00:15;;;;;;;2.38;1.60;;;13.70;93.00;;;;;;4965055;28;20031;-69
2021/04/24 02:02:41;;;;;;;2.30;1.67;;;13.70;93.90;;;;;;4980418;28;20574;-70
2021/04/24 02:05:11;;;;;;;2.10;1.45;;;13.60;94.00;;;;;;4979413;28;20038;-68
2021/04/24 02:07:36;;;;;;;3.28;2.10;;;13.40;94.60;;;;;;4985234;28;20018;-69
2021/04/24 02:10:10;;;;;;;1.70;1.60;;;13.10;94.80;;;;;;4971350;28;20377;-70
2021/04/24 02:12:36;;;;;;;1.98;1.70;;;13.10;95.30;;;;;;4983163;28;20430;-68
2021/04/24 02:15:03;;;;;;;4.38;1.88;;;12.90;94.90;;;;;;4981404;28;20019;-68
2021/04/24 02:17:29;;;;;;;1.90;1.80;;;12.90;94.60;;;;;;4979676;28;20034;-69
2021/04/24 02:19:55;;;;;;;2.20;1.85;;;12.70;95.40;;;;;;4973253;28;20454;-70
2021/04/24 02:22:22;;;;;;;2.67;1.70;;;12.80;95.40;;;;;;4979287;28;20046;-69
2021/04/24 02:24:59;;;;;;;1.60;1.50;;;12.90;94.30;;;;;;4978037;28;20408;-69
2021/04/24 02:27:27;;;;;;;2.00;1.90;;;12.80;94.10;;;;;;4981485;28;20097;-69
2021/04/24 02:29:54;;;;;;;1.88;1.77;;;13.20;93.30;;;;;;4987133;28;20092;-69
2021/04/24 02:32:23;;;;;;;2.92;1.48;;;13.30;92.60;;;;;;4978507;28;20027;-70
2021/04/24 02:34:49;;;;;;;1.73;1.63;;;13.30;92.30;;;;;;4972443;28;20053;-68
2021/04/24 02:37:16;;;;;;;1.55;1.35;;;13.40;92.40;;;;;;4978671;28;20062;-68
2021/04/24 02:39:44;;;;;;;1.80;1.70;;;13.40;92.10;;;;;;4972771;28;20073;-68
2021/04/24 02:42:19;;;;;;;1.50;1.40;;;13.30;91.90;;;;;;4979471;28;20077;-68
2021/04/24 02:44:45;;;;;;;1.85;1.42;;;13.40;91.80;;;;;;4972977;28;20027;-69
2021/04/24 02:47:12;;;;;;;2.95;1.60;;;13.50;91.90;;;;;;4978450;28;20034;-70
2021/04/24 02:49:38;;;;;;;2.75;1.40;;;13.40;91.80;;;;;;4979976;28;20042;-70
2021/04/24 02:52:05;;;;;;;2.33;1.80;;;13.50;92.00;;;;;;4965994;28;20437;-69
2021/04/24 02:54:32;;;;;;;2.22;1.70;;;13.30;91.90;;;;;;4969824;28;20125;-68
2021/04/24 02:56:58;;;;;;;2.08;1.98;;;13.30;91.70;;;;;;4977371;28;20047;-69
2021/04/24 02:59:24;;;;;;;1.40;1.30;;;13.50;91.90;;;;;;4980584;28;20106;-69
2021/04/24 03:01:51;;;;;;;3.03;1.50;;;13.40;91.90;;;;;;4980878;28;20114;-68
2021/04/24 03:04:17;;;;;;;1.33;1.23;;;13.30;91.90;;;;;;4974263;28;20457;-69
2021/04/24 03:06:44;;;;;;;3.05;1.55;;;13.40;91.90;;;;;;4979959;28;20050;-68
2021/04/24 03:09:10;;;;;;;1.80;1.70;;;13.40;92.10;;;;;;4984338;28;20037;-69
2021/04/24 03:11:36;;;;;;;2.00;1.60;;;13.60;92.00;;;;;;4972366;28;20044;-70
2021/04/24 03:14:03;;;;;;;3.58;2.58;;;13.40;92.30;;;;;;4971185;28;20097;-70
2021/04/24 03:16:29;;;;;;;3.58;1.75;;;13.30;92.30;;;;;;4977563;28;20035;-69
2021/04/24 03:18:54;;;;;;;4.07;2.03;;;13.30;92.40;;;;;;4971052;28;20031;-69
2021/04/24 03:21:24;;;;;;;1.58;1.45;;;13.20;93.00;;;;;;4973349;28;20041;-69
2021/04/24 03:23:51;;;;;;;1.67;1.58;;;13.20;93.00;;;;;;4970797;28;20113;-69
2021/04/24 03:26:17;;;;;;;2.22;2.00;;;13.10;93.20;;;;;;4979593;28;20055;-67
2021/04/24 03:28:43;;;;;;;1.92;1.77;;;13.20;93.30;;;;;;4966881;28;20034;-69
2021/04/24 03:31:09;;;;;;;2.08;1.88;;;13.20;93.70;;;;;;4971527;28;20421;-69
2021/04/24 03:33:35;;;;;;;2.08;1.85;;;13.10;93.80;;;;;;4964339;28;20058;-69
2021/04/24 03:36:02;;;;;;;3.10;1.85;;;12.90;94.10;;;;;;4970181;28;20057;-68
2021/04/24 03:38:28;;;;;;;4.75;1.92;;;13.00;94.20;;;;;;4980157;28;20497;-70
2021/04/24 03:40:54;;;;;;;2.28;2.05;;;12.90;94.20;;;;;;4975524;28;20121;-70
2021/04/24 03:43:20;;;;;;;1.83;1.73;;;13.00;94.60;;;;;;4972844;28;20110;-68
2021/04/24 03:45:45;;;;;;;1.80;1.70;;;12.90;94.80;;;;;;4964170;28;20057;-69
2021/04/24 03:48:11;;;;;;;3.75;2.15;;;12.70;95.30;;;;;;4974353;28;20030;-69
2021/04/24 03:50:37;;;;;;;2.67;1.80;;;12.60;95.90;;;;;;4965090;28;20084;-68
2021/04/24 03:53:02;;;;;;;2.50;2.28;;;12.40;96.20;;;;;;4976899;28;20026;-69
2021/04/24 03:55:28;;;;;;;2.50;2.30;;;12.10;96.40;;;;;;4973145;28;20035;-70
2021/04/24 03:57:54;;;;;;;3.13;2.40;;;12.20;96.60;;;;;;4980289;28;20443;-70
2021/04/24 04:00:23;;;;;;;4.75;4.35;;;12.00;97.00;;;;;;4972279;28;20757;-69
2021/04/24 04:02:50;;;;;;;5.68;5.28;;;11.90;97.30;;;;;;4980567;28;20018;-70
2021/04/24 04:05:17;;;;;;;5.90;4.90;;;11.80;97.60;;;;;;4972183;28;20081;-68
2021/04/24 04:07:44;;;;;;;6.55;4.97;;;11.70;97.90;;;;;;4979267;28;20026;-69
2021/04/24 04:10:12;;;;;;;5.68;4.40;;;11.70;97.70;;;;;;4972541;28;20116;-70
2021/04/24 04:12:38;;;;;;;4.35;3.95;;;11.70;98.20;;;;;;4974213;28;20033;-66
2021/04/24 04:15:05;;;;;;;3.45;2.97;;;11.40;98.60;;;;;;4967641;28;20027;-68
2021/04/24 04:17:31;;;;;;;4.43;4.10;;;11.20;98.90;;;;;;4968572;28;20019;-70
2021/04/24 04:19:57;;;;;;;5.10;3.20;;;11.50;98.70;;;;;;4966484;28;20070;-70
2021/04/24 04:22:24;;;;;;;3.25;2.95;;;11.50;99.00;;;;;;4969361;28;20043;-70
2021/04/24 04:24:49;;;;;;;3.72;3.30;;;11.60;99.30;;;;;;4966286;28;20456;-70
2021/04/24 04:27:15;;;;;;;3.72;3.38;;;11.60;99.70;;;;;;4965747;28;20102;-70
2021/04/24 04:29:41;;;;;;;2.40;2.20;;;11.40;99.90;;;;;;4970063;28;20023;-70
2021/04/24 04:32:06;;;;;;;3.22;2.70;;;11.50;99.80;;;;;;4964553;28;20019;-71
2021/04/24 04:34:32;;;;;;;2.30;2.13;;;11.80;99.70;;;;;;4970784;28;20033;-71
2021/04/24 04:36:58;;;;;;;3.65;2.60;;;11.80;99.20;;;;;;4965981;28;20698;-70
2021/04/24 04:39:24;;;;;;;4.25;2.53;;;11.90;99.40;;;;;;4979326;28;20031;-70
2021/04/24 04:41:49;;;;;;;2.60;2.40;;;11.90;99.40;;;;;;4963496;28;20121;-70
2021/04/24 04:44:15;;;;;;;4.47;2.40;;;11.90;99.40;;;;;;4962953;28;20035;-68
2021/04/24 04:46:41;;;;;;;11.63;2.75;;;12.30;99.30;;;;;;4966337;28;20054;-67
2021/04/24 04:49:06;;;;;;;6.63;2.22;;;12.10;99.20;;;;;;4977756;28;20023;-67
2021/04/24 04:51:32;;;;;;;5.65;2.40;;;12.00;99.20;;;;;;4965347;28;20038;-68
2021/04/24 04:53:59;;;;;;;2.33;2.10;;;11.80;99.90;;;;;;4968662;28;20030;-68
2021/04/24 04:56:25;;;;;;;3.28;2.25;;;11.70;99.90;;;;;;4970117;28;20034;-68
2021/04/24 04:58:50;;;;;;;2.38;2.17;;;11.90;99.90;;;;;;4966669;28;20027;-68
2021/04/24 05:01:18;;;;;;;3.33;2.65;;;12.00;99.70;;;;;;4966847;28;20042;-68
2021/04/24 05:03:44;;;;;;;2.88;2.67;;;12.00;99.80;;;;;;4957964;28;20032;-68
2021/04/24 05:06:09;;;;;;;2.88;2.20;;;12.00;99.50;;;;;;4956160;28;20027;-68
2021/04/24 05:08:36;;;;;;;2.85;2.55;;;11.90;99.70;;;;;;4969773;28;20026;-69
2021/04/24 05:11:08;;;;;;;2.75;2.47;;;12.10;99.60;;;;;;4965791;28;20053;-68
2021/04/24 05:13:34;;;;;;;3.10;2.28;;;12.00;99.60;;;;;;4965163;28;20042;-68
2021/04/24 05:16:00;;;;;;;4.80;2.63;;;12.10;99.60;;;;;;4965654;28;20023;-68
2021/04/24 05:18:26;;;;;;;3.42;2.25;;;12.20;99.70;;;;;;4951915;28;20475;-67
2021/04/24 05:20:51;;;;;;;2.38;2.17;;;12.20;99.50;;;;;;4967861;28;20030;-67
2021/04/24 05:23:17;;;;;;;3.67;2.00;;;12.30;99.80;;;;;;4970063;28;20507;-67
2021/04/24 05:25:43;;;;;;;2.85;2.65;;;12.20;99.90;;;;;;4966512;28;20502;-67
2021/04/24 05:28:09;;;;;;;2.85;2.65;;;12.30;99.90;;;;;;4963380;28;20081;-67
2021/04/24 05:30:34;;;;;;;3.97;2.58;;;12.20;99.90;;;;;;4966435;28;20023;-67
2021/04/24 05:33:00;;;;;;;3.67;2.42;;;12.50;99.90;;;;;;4960912;28;20664;-67
2021/04/24 05:35:26;;;;;;;2.75;2.53;;;12.50;99.90;;;;;;4961380;28;20549;-68
2021/04/24 05:37:52;;;;;;;3.00;2.47;;;12.50;99.90;;;;;;4967040;28;20023;-68
2021/04/24 05:40:18;;;;;;;4.43;2.63;;;12.60;99.90;;;;;;4961340;28;20034;-68
2021/04/24 05:42:44;;;;;;;3.58;2.75;;;12.70;99.90;;;;;;4969704;28;20418;-68
2021/04/24 05:45:12;;;;;;;3.47;2.67;;;12.70;99.90;;;;;;4962405;28;20026;-67
2021/04/24 05:47:42;;;;;;;2.70;2.50;;;12.70;99.90;;;;;;4971139;28;20066;-68
2021/04/24 05:50:09;;;;;;;3.13;2.47;;;12.80;99.90;;;;;;4963533;28;20026;-69
2021/04/24 05:52:36;;;;;;;4.88;2.70;;;12.90;99.90;;;;;;4971620;28;20026;-70
2021/04/24 05:55:04;;;;;;;3.47;2.72;;;12.80;99.90;;;;;;4974042;28;20030;-70
2021/04/24 05:57:31;;;;;;;4.75;2.80;;;12.90;99.90;;;;;;4974054;28;20025;-71
2021/04/24 05:59:57;;;;;;;2.88;2.50;;;12.80;99.90;;;;;;4958510;28;20023;-69
2021/04/24 06:02:22;;;;;;;2.65;2.45;;;13.00;99.90;;;;;;4976212;28;20201;-70
2021/04/24 06:04:48;;;;;;;3.03;2.78;;;13.00;99.90;;;;;;4973052;28;20042;-67
2021/04/24 06:07:14;;;;;;;3.08;2.85;;;13.00;99.90;;;;;;4966245;28;20170;-67
2021/04/24 06:09:40;;;;;;;4.38;3.00;;;13.10;99.90;;;;;;4955438;28;20035;-66
2021/04/24 06:12:06;;;;;;;3.00;2.75;;;13.10;99.90;;;;;;4974104;28;20384;-66
2021/04/24 06:14:32;;;;;;;2.88;2.67;;;13.20;99.90;;;;;;4976611;28;20035;-67
2021/04/24 06:16:58;;;;;;;3.03;2.80;;;13.20;99.90;;;;;;4978161;28;20034;-66
2021/04/24 06:19:25;;;;;;;3.40;2.95;;;13.10;99.90;;;;;;4980285;28;20105;-66
2021/04/24 06:21:51;;;;;;;3.60;3.30;;;13.10;99.90;;;;;;4976989;28;20053;-66
2021/04/24 06:24:16;;;;;;;3.22;2.83;;;13.10;99.90;;;;;;4969150;28;20403;-66
2021/04/24 06:26:42;;;;;;;3.03;2.83;;;13.10;99.90;;;;;;4969726;28;20150;-68
2021/04/24 06:29:08;;;;;;;3.17;2.88;;;13.10;99.90;;;;;;4973928;28;20051;-66
2021/04/24 06:31:33;;;;;;;2.92;2.65;;;13.10;99.90;;;;;;4978897;28;20415;-66
2021/04/24 06:33:59;;;;;;;3.10;2.80;;;13.20;99.90;;;;;;4973459;28;20035;-65
2021/04/24 06:36:24;;;;;;;2.92;2.55;;;13.40;99.90;;;;;;4977595;28;20023;-66
2021/04/24 06:38:50;;;;;;;3.45;2.65;;;13.60;99.90;;;;;;4980738;28;20530;-66
2021/04/24 06:41:16;;;;;;;3.40;2.53;;;13.70;99.90;;;;;;4978111;28;20022;-66
2021/04/24 06:43:42;;;;;;;4.03;3.03;;;13.70;99.90;;;;;;4981697;28;20034;-66
2021/04/24 06:46:07;;;;;;;7.25;2.60;;;13.80;99.90;;;;;;4977914;28;20030;-66
2021/04/24 06:48:33;;;;;;;3.25;2.30;;;14.00;99.90;;;;;;4982574;28;20061;-66
2021/04/24 06:51:00;;;;;;;2.88;2.65;;;14.00;99.90;;;;;;4974443;28;20034;-66
2021/04/24 06:53:26;;;;;;;3.80;2.42;;;14.10;99.90;;;;;;4988495;28;20415;-65
2021/04/24 06:55:54;;;;;;;5.22;2.78;;;14.30;99.90;;;;;;4974970;28;20332;-67
2021/04/24 06:58:20;;;;;;;2.40;2.20;;;14.30;99.80;;;;;;4988407;28;20551;-64
2021/04/24 07:00:46;;;;;;;2.97;2.78;;;14.40;99.90;;;;;;4972906;28;20030;-64
2021/04/24 07:03:12;;;;;;;2.70;2.50;;;14.50;99.60;;;;;;4977126;28;20125;-65
2021/04/24 07:05:38;;;;;;;2.50;2.30;;;14.60;99.50;;;;;;4959053;28;20027;-65
2021/04/24 07:08:03;;;;;;;5.43;2.55;;;14.70;99.80;;;;;;4975019;28;20072;-65
2021/04/24 07:10:29;;;;;;;2.78;2.25;;;14.80;99.30;;;;;;4971888;28;20027;-65
2021/04/24 07:12:55;;;;;;;4.93;2.90;;;14.90;99.20;;;;;;4967355;28;20587;-65
2021/04/24 07:15:21;;;;;;;3.70;2.53;;;15.00;99.20;;;;;;4955857;28;20019;-65
2021/04/24 07:17:47;;;;;;;5.85;2.17;;;15.10;99.00;;;;;;4966987;28;20043;-65
2021/04/24 07:20:13;;;;;;;2.30;2.10;;;15.30;98.40;;;;;;4965521;28;20099;-65
2021/04/24 07:22:40;;;;;;;2.47;2.15;;;15.30;98.20;;;;;;4971115;28;20487;-65
2021/04/24 07:25:07;;;;;;;3.03;2.13;;;15.30;98.00;;;;;;4963230;28;20027;-65
2021/04/24 07:27:33;;;;;;;4.13;2.38;;;15.60;97.70;;;;;;4975039;28;20078;-65
2021/04/24 07:29:59;;;;;;;2.30;2.10;;;15.70;98.10;;;;;;4961955;28;20031;-66
2021/04/24 07:32:26;;;;;;;2.20;2.00;;;15.80;97.80;;;;;;4976576;28;20021;-66
2021/04/24 07:34:52;;;;;;;2.20;2.00;;;15.90;96.70;;;;;;4965800;28;20019;-65
2021/04/24 07:37:17;;;;;;;2.38;2.17;;;16.00;97.00;;;;;;4963259;28;20419;-65
2021/04/24 07:39:43;;;;;;;3.78;2.30;;;16.10;96.80;;;;;;4961963;28;20023;-66
2021/04/24 07:42:09;;;;;;;2.38;2.17;;;16.20;96.20;;;;;;4964683;28;20027;-65
2021/04/24 07:44:37;;;;;;;2.92;2.28;;;16.20;96.50;;;;;;4964165;28;20452;-65
2021/04/24 07:47:04;;;;;;;1.98;1.88;;;16.50;96.00;;;;;;4968006;28;20019;-66
2021/04/24 07:49:29;;;;;;;2.40;2.20;;;16.60;95.50;;;;;;4964385;28;20102;-64
2021/04/24 07:51:55;;;;;;;3.15;1.80;;;16.40;95.30;;;;;;4967269;28;20103;-64
2021/04/24 07:54:20;;;;;;;4.30;2.22;;;16.50;95.20;;;;;;4965042;28;20027;-64
2021/04/24 07:56:47;;;;;;;4.15;2.35;;;16.70;95.40;;;;;;4970180;28;20041;-64
2021/04/24 07:59:13;;;;;;;3.90;1.70;;;16.80;95.30;;;;;;4966280;28;20008;-64
2021/04/24 08:01:40;;;;;;;8.68;1.85;;;16.80;94.40;;;;;;4968930;28;20039;-64
2021/04/24 08:04:07;;;;;;;4.65;1.77;;;16.90;95.10;;;;;;4970679;28;20035;-64
2021/04/24 08:06:36;;;;;;;1.75;1.65;;;16.90;94.40;;;;;;4975716;28;20015;-64
2021/04/24 08:09:03;;;;;;;1.80;1.70;;;16.90;94.70;;;;;;4970836;28;20056;-64
2021/04/24 08:11:29;;;;;;;1.95;1.45;;;17.30;94.70;;;;;;4975707;28;20070;-64
2021/04/24 08:13:55;;;;;;;1.85;1.42;;;17.30;95.20;;;;;;4970892;28;20038;-66
2021/04/24 08:16:21;;;;;;;3.17;1.60;;;17.50;94.70;;;;;;4967546;28;20019;-64
2021/04/24 08:18:46;;;;;;;2.40;1.42;;;17.40;93.80;;;;;;4952950;28;20696;-67
2021/04/24 08:21:12;;;;;;;2.20;1.52;;;17.60;94.30;;;;;;4967621;28;20428;-66
2021/04/24 08:23:38;;;;;;;3.03;1.60;;;17.70;93.30;;;;;;4964061;28;20057;-63
2021/04/24 08:26:03;;;;;;;5.30;1.70;;;17.60;93.50;;;;;;4960536;28;20488;-60
2021/04/24 08:28:29;;;;;;;4.43;1.65;;;17.70;93.10;;;;;;4954310;28;20027;-66
2021/04/24 08:30:55;;;;;;;7.32;1.67;;;17.60;93.00;;;;;;4966169;28;20063;-66
2021/04/24 08:33:20;;;;;;;1.48;1.35;;;17.90;93.50;;;;;;4966293;28;20061;-67
2021/04/24 08:35:46;;;;;;;2.75;1.60;;;18.20;93.70;;;;;;4959822;28;20039;-66
2021/04/24 08:38:12;;;;;;;3.70;1.67;;;18.20;92.90;;;;;;4967606;28;20142;-66
2021/04/24 08:40:38;;;;;;;7.40;1.70;;;18.10;92.60;;;;;;4963540;28;20101;-66
2021/04/24 08:43:04;;;;;;;3.97;1.70;;;18.10;93.10;;;;;;4968294;28;20427;-66
2021/04/24 08:45:30;;;;;;;1.95;1.77;;;18.20;92.90;;;;;;4979731;28;20031;-66
2021/04/24 08:47:57;;;;;;;2.42;1.50;;;18.40;93.30;;;;;;4954909;28;20031;-66
2021/04/24 08:50:29;;;;;;;1.50;1.40;;;18.60;92.80;;;;;;4956559;28;20040;-67
2021/04/24 08:52:56;;;;;;;6.88;1.58;;;18.70;92.90;;;;;;4959053;28;20404;-67
2021/04/24 08:55:24;;;;;;;3.00;1.58;;;18.60;93.00;;;;;;4964181;28;20019;-67
2021/04/24 08:57:51;;;;;;;1.85;1.38;;;18.90;92.90;;;;;;4959581;28;20022;-67
2021/04/24 09:00:20;;;;;;;2.35;1.60;;;18.90;91.80;;;;;;4959606;28;20027;-67
2021/04/24 09:02:47;;;;;;;1.95;1.42;;;19.00;92.90;;;;;;4978123;28;20023;-67
2021/04/24 09:05:15;;;;;;;6.00;1.55;;;19.00;92.40;;;;;;4954631;28;20034;-67
2021/04/24 09:07:41;;;;;;;5.13;1.77;;;19.00;91.00;;;;;;4978467;28;20577;-67
2021/04/24 09:10:11;;;;;;;3.10;1.50;;;19.00;91.50;;;;;;4951332;28;20067;-68
2021/04/24 09:12:41;;;;;;;3.90;1.55;;;19.40;92.10;;;;;;4975054;28;20629;-67
2021/04/24 09:15:27;;;;;;;2.53;1.50;;;19.60;91.10;;;;;;4969430;28;20027;-68
2021/04/24 09:17:55;;;;;;;4.85;1.63;;;19.50;91.40;;;;;;4970644;28;20038;-68
2021/04/24 09:20:23;;;;;;;2.83;1.73;;;19.40;91.20;;;;;;4965624;28;20023;-67
2021/04/24 09:23:06;;;;;;;3.17;1.42;;;19.50;91.30;;;;;;4965299;28;20057;-67
2021/04/24 09:25:34;;;;;;;2.53;1.40;;;19.60;91.10;;;;;;4966492;28;20023;-67
2021/04/24 09:28:00;;;;;;;3.20;1.85;;;19.50;91.00;;;;;;4966728;28;20018;-67
2021/04/24 09:30:30;;;;;;;2.47;1.42;;;19.40;91.20;;;;;;4958143;28;20130;-67
2021/04/24 09:33:03;;;;;;;2.80;1.90;;;19.40;90.50;;;;;;4959657;28;20019;-68
2021/04/24 09:35:38;;;;;;;4.25;1.48;;;19.40;90.50;;;;;;4947584;28;20815;-66
2021/04/24 09:38:04;;;;;;;3.45;1.90;;;19.60;90.90;;;;;;4961842;28;20051;-66
2021/04/24 09:40:30;;;;;;;2.20;1.77;;;19.90;90.30;;;;;;4969289;28;20487;-67
2021/04/24 09:43:08;;;;;;;1.98;1.73;;;19.60;90.50;;;;;;4977319;28;20030;-66
2021/04/24 09:45:39;;;;;;;6.15;1.60;;;19.70;91.00;;;;;;4968062;28;20070;-66
2021/04/24 09:48:21;;;;;;;2.70;1.80;;;19.60;91.20;;;;;;4970789;28;20030;-68
2021/04/24 09:50:47;;;;;;;9.57;2.28;;;19.90;91.30;;;;;;4972268;28;20081;-67
2021/04/24 09:53:14;;;;;;;9.27;1.85;;;20.20;91.30;;;;;;4957195;28;20027;-67
2021/04/24 09:55:40;;;;;;;6.10;2.13;;;20.60;91.40;;;;;;4964572;28;20594;-67
2021/04/24 09:58:25;;;;;;;2.20;1.60;;;20.70;90.90;;;;;;4982802;28;20010;-66
2021/04/24 10:00:51;;;;;;;3.00;1.95;;;20.30;90.50;;;;;;4978460;28;20027;-67
2021/04/24 10:03:39;;;;;;;4.60;2.08;;;20.20;90.70;;;;;;4968078;28;20130;-67
2021/04/24 10:06:26;;;;;;;7.25;1.67;;;20.40;90.90;;;;;;4968450;28;20427;-67
2021/04/24 10:09:07;;;;;;;;;;;20.50;91.10;;;;;;4963244;28;20027;-67
2021/04/24 10:11:33;;;;;;;6.05;1.77;;;20.50;91.20;;;;;;4979057;28;19910;-67
2021/04/24 10:13:59;;;;;;;2.17;1.98;;;20.50;90.80;;;;;;4973330;28;20105;-67
2021/04/24 10:16:41;;;;;;;2.35;1.88;;;20.60;91.60;;;;;;4977747;28;20546;-69
2021/04/24 10:19:10;;;;;;;7.93;3.72;;;21.00;91.30;;;;;;4968749;28;20027;-68
2021/04/24 10:21:36;;;;;;;1.95;1.75;;;21.00;90.70;;;;;;4976504;28;20034;-67
2021/04/24 10:24:04;;;;;;;2.72;2.00;;;21.00;90.30;;;;;;4963225;28;20039;-69
2021/04/24 10:26:30;;;;;;;2.28;1.98;;;21.10;90.70;;;;;;4967002;28;20031;-67
2021/04/24 10:28:58;;;;;;;2.22;1.50;;;21.30;89.40;;;;;;4961355;28;20022;-67
2021/04/24 10:31:24;;;;;;;3.67;1.90;;;21.10;89.90;;;;;;4969352;28;20512;-68
2021/04/24 10:33:50;;;;;;;4.88;1.58;;;21.00;89.00;;;;;;4965117;28;20029;-69
2021/04/24 10:36:18;;;;;;;2.00;1.63;;;21.10;89.70;;;;;;4968015;28;20566;-67
2021/04/24 10:38:49;;;;;;;2.65;1.88;;;21.50;88.30;;;;;;4961437;28;20034;-69
2021/04/24 10:41:24;;;;;;;3.13;1.90;;;21.50;89.50;;;;;;4958155;28;20551;-68
2021/04/24 10:43:57;;;;;;;10.17;2.20;;;21.60;89.50;;;;;;4966687;28;20032;-69
2021/04/24 10:46:50;;;;;;;2.25;1.60;;;22.10;89.10;;;;;;4971265;28;20023;-67
2021/04/24 10:49:25;;;;;;;10.23;1.77;;;22.30;88.30;;;;;;4987048;28;20042;-68
2021/04/24 10:52:03;;;;;;;4.88;1.77;;;22.40;87.50;;;;;;4980055;28;20052;-68
2021/04/24 10:54:40;;;;;;;5.85;1.50;;;22.60;87.00;;;;;;4958984;28;20031;-68
2021/04/24 10:57:37;;;;;;;5.28;1.77;;;22.80;87.10;;;;;;4969254;28;20516;-67
2021/04/24 11:00:02;;;;;;;;;;;22.70;86.60;;;;;;4965062;28;20043;-68
2021/04/24 11:02:49;;;;;;;2.92;1.65;;;23.00;85.00;;;;;;4973061;28;19910;-67
2021/04/24 11:05:18;;;;;;;6.13;1.48;;;22.70;83.80;;;;;;4961230;28;20027;-67
2021/04/24 11:07:44;;;;;;;7.88;1.52;;;22.60;82.80;;;;;;4973940;28;20031;-68
2021/04/24 11:10:10;;;;;;;11.70;2.10;;;22.60;81.60;;;;;;4968962;28;20049;-70
2021/04/24 11:12:42;;;;;;;13.88;1.98;;;22.50;80.80;;;;;;4973060;28;20487;-68
2021/04/24 11:15:15;;;;;;;4.05;1.20;;;22.60;80.00;;;;;;4971914;28;20031;-68
2021/04/24 11:17:41;;;;;;;4.25;1.60;;;22.90;80.80;;;;;;4980145;28;20030;-67
2021/04/24 11:20:09;;;;;;;8.07;1.27;;;23.30;80.00;;;;;;4967282;28;20023;-67
2021/04/24 11:22:41;;;;;;;3.65;1.17;;;23.60;80.00;;;;;;4980478;28;20049;-67
2021/04/24 11:25:20;;;;;;;4.05;1.30;;;23.10;81.00;;;;;;4979068;28;20507;-68
2021/04/24 11:28:12;;;;;;;5.68;1.30;;;23.70;78.10;;;;;;4978008;28;20511;-67
2021/04/24 11:31:07;;;;;;;4.65;1.30;;;23.80;77.50;;;;;;4973093;28;20507;-67
2021/04/24 11:33:42;;;;;;;5.97;1.30;;;23.30;77.00;;;;;;4975618;28;20059;-68
2021/04/24 11:36:14;;;;;;;14.90;1.83;;;23.50;77.40;;;;;;4975794;28;20026;-67
2021/04/24 11:41:35;;;;;;;2.95;1.25;;;24.10;74.90;;;;;;4976899;28;20026;-67
2021/04/24 11:44:23;;;;;;;6.80;1.25;;;23.70;74.50;;;;;;4980634;28;20519;-67
2021/04/24 11:46:51;;;;;;;4.47;1.27;;;23.80;76.30;;;;;;4976667;28;20042;-68
2021/04/24 11:49:27;;;;;;;4.75;1.40;;;24.20;74.50;;;;;;4981683;28;20049;-68
2021/04/24 11:51:58;;;;;;;1.55;1.08;;;24.00;72.60;;;;;;4978548;28;20045;-66
2021/04/24 11:54:39;;;;;;;3.70;1.00;;;23.90;72.90;;;;;;4986271;28;20022;-65
2021/04/24 11:57:06;;;;;;;3.60;2.47;;;24.10;72.70;;;;;;4967209;28;20030;-65
2021/04/24 11:59:35;;;;;;;4.15;3.70;;;24.40;73.40;;;;;;4968168;28;20081;-65
2021/04/24 12:02:12;;;;;;;5.82;1.27;;;24.50;71.00;;;;;;4967041;28;20106;-65
2021/04/24 12:04:39;;;;;;;1.30;1.20;;;24.70;71.90;;;;;;4955990;28;20118;-65
2021/04/24 12:07:12;;;;;;;2.88;1.10;;;25.10;72.30;;;;;;4962137;28;20023;-66
2021/04/24 12:09:54;;;;;;;3.22;1.10;;;24.70;69.60;;;;;;4971065;28;20039;-65
2021/04/24 12:12:34;;;;;;;4.40;1.35;;;24.60;70.10;;;;;;4965517;28;20078;-65
2021/04/24 12:15:22;;;;;;;4.40;1.13;;;24.90;71.90;;;;;;4956094;28;20026;-65
2021/04/24 12:17:53;;;;;;;6.22;1.30;;;25.20;69.70;;;;;;4974248;28;20109;-65
2021/04/24 12:20:30;;;;;;;5.20;1.10;;;24.80;70.30;;;;;;4969743;28;20018;-65
2021/04/24 12:23:01;;;;;;;6.45;0.82;;;24.80;69.50;;;;;;4961730;28;20507;-65
2021/04/24 12:25:29;;;;;;;5.78;1.30;;;25.30;69.50;;;;;;4964275;28;20030;-66
2021/04/24 12:27:57;;;;;;;8.82;1.20;;;25.40;70.70;;;;;;4964407;28;20031;-66
2021/04/24 12:30:28;;;;;;;4.32;1.20;;;25.70;70.00;;;;;;4966477;28;20037;-65
2021/04/24 12:33:06;;;;;;;2.92;1.20;;;25.50;68.60;;;;;;4968440;28;20035;-66
2021/04/24 12:35:41;;;;;;;3.22;1.10;;;25.80;69.50;;;;;;4962142;28;20023;-66
2021/04/24 12:38:10;;;;;;;4.60;1.42;;;25.60;70.00;;;;;;4976415;28;20023;-65
2021/04/24 12:40:42;;;;;;;4.75;1.38;;;25.00;68.60;;;;;;4971773;28;20027;-66
2021/04/24 12:43:20;;;;;;;1.60;0.73;;;25.80;69.40;;;;;;4976631;28;20031;-66
2021/04/24 12:45:47;;;;;;;5.82;1.13;;;25.50;69.70;;;;;;4970728;28;20419;-66
2021/04/24 12:48:16;;;;;;;2.38;1.00;;;25.30;67.30;;;;;;4969847;28;20015;-66
2021/04/24 12:50:42;;;;;;;3.40;1.45;;;25.10;67.30;;;;;;4967066;28;20030;-66
2021/04/24 12:53:10;;;;;;;11.65;1.30;;;24.70;68.20;;;;;;4970437;28;20085;-67
2021/04/24 12:55:44;;;;;;;12.85;1.55;;;25.20;68.10;;;;;;4966092;28;20023;-67
2021/04/24 12:58:12;;;;;;;4.57;1.27;;;25.90;69.70;;;;;;4974557;28;20030;-70